Johnstown, Ohio
Current Conditions -  °F | °C
As of 4:51 PM on Friday 28 Nov 2014 (Local Time) from KCMH Reporting Station
Broken Clouds Broken Clouds  
Wind Chill: 23°   Ceiling: 11000
Heat Index: 31°   Visibility: 10mi
Dew Point: 17°   Wind: 8mph
Humidity: 57%   Direction: 150°SSE
Pressure: 30.23"   Gusts: NA
Location:  40.15°N, 82.69°W
Report Text: KCMH 282151Z 15007KT 10SM FEW033 SCT080 BKN110 BKN250 M01/M08 A3023 RMK AO2 SLP245 T10061083
Loading
Personal Weather Stations






























Interactive Weather Map New forecast layout! Learn more

10-Day Weather Forecast

Advertisements
Track Severe Weather on mobile